Time;durP1;ratioP1;P1;durP2;ratioP2;P2;SDS_P1;SDS_P2;PMS_P1;PMS_P2;Temp;Humidity;BMP_temperature;BMP_pressure;BME280_temperature;BME280_humidity;BME280_pressure;Samples;Min_cycle;Max_cycle;Signal;HPM_P1;HPM_P2
2022/06/05 00:01:17;;;;;;;14.80;5.75;;;14.40;99.90;;;;;;5084284;28;20532;-56
2022/06/05 00:04:08;;;;;;;14.73;5.78;;;15.20;99.90;;;;;;5080760;28;20183;-57
2022/06/05 00:06:46;;;;;;;16.40;5.88;;;14.30;99.90;;;;;;5079665;28;20206;-56
2022/06/05 00:09:40;;;;;;;15.10;6.13;;;14.30;99.90;;;;;;5089482;28;20206;-57
2022/06/05 00:12:15;;;;;;;17.25;6.28;;;14.20;99.90;;;;;;5054828;28;20172;-56
2022/06/05 00:14:41;;;;;;;13.45;6.18;;;14.10;99.90;;;;;;5077217;28;20184;-56
2022/06/05 00:17:25;;;;;;;21.20;7.15;;;14.00;99.90;;;;;;5072989;28;20275;-55
2022/06/05 00:19:52;;;;;;;14.50;6.40;;;13.90;99.90;;;;;;5086806;28;20709;-55
2022/06/05 00:22:19;;;;;;;13.55;6.63;;;13.60;99.90;;;;;;5078096;28;20259;-56
2022/06/05 00:24:45;;;;;;;15.50;6.93;;;13.80;99.90;;;;;;5083383;28;20172;-56
2022/06/05 00:27:18;;;;;;;19.70;6.85;;;13.80;99.90;;;;;;5088780;28;20574;-57
2022/06/05 00:30:09;;;;;;;15.55;6.55;;;13.70;99.90;;;;;;5072328;28;20204;-57
2022/06/05 00:32:38;;;;;;;16.90;7.00;;;13.50;99.90;;;;;;5078267;28;20262;-56
2022/06/05 00:35:09;;;;;;;18.10;6.78;;;13.50;99.90;;;;;;5070914;28;20180;-57
2022/06/05 00:37:43;;;;;;;14.82;6.35;;;13.60;99.90;;;;;;5070785;28;20588;-56
2022/06/05 00:40:36;;;;;;;14.13;6.65;;;13.70;99.90;;;;;;5070484;28;20590;-57
2022/06/05 00:43:06;;;;;;;19.45;6.55;;;13.50;99.90;;;;;;5072837;28;20176;-57
2022/06/05 00:45:35;;;;;;;16.48;7.40;;;13.50;99.90;;;;;;5068985;28;20187;-57
2022/06/05 00:48:01;;;;;;;17.88;7.05;;;13.50;99.90;;;;;;5070668;28;20182;-57
2022/06/05 00:50:30;;;;;;;16.90;7.35;;;13.40;99.90;;;;;;5070521;28;20177;-57
2022/06/05 00:52:58;;;;;;;13.80;6.88;;;13.40;99.90;;;;;;5073085;28;20702;-57
2022/06/05 00:55:28;;;;;;;16.25;6.78;;;13.20;99.90;;;;;;5090746;28;20171;-57
2022/06/05 00:57:55;;;;;;;17.75;7.63;;;14.80;99.90;;;;;;5090191;28;20673;-56
2022/06/05 01:00:22;;;;;;;20.83;7.97;;;13.20;99.90;;;;;;5090439;28;20267;-57
2022/06/05 01:02:51;;;;;;;19.75;7.57;;;13.30;99.90;;;;;;5089066;28;20172;-57
2022/06/05 01:05:19;;;;;;;17.48;7.43;;;13.20;99.90;;;;;;5078010;28;20176;-57
2022/06/05 01:07:46;;;;;;;15.88;7.28;;;13.20;99.90;;;;;;5086514;28;20208;-56
2022/06/05 01:10:14;;;;;;;20.27;7.60;;;13.00;99.90;;;;;;5057153;28;20213;-57
2022/06/05 01:12:58;;;;;;;17.35;7.78;;;12.90;99.90;;;;;;5093594;28;20168;-56
2022/06/05 01:15:29;;;;;;;17.17;7.10;;;13.00;99.90;;;;;;5054375;28;20286;-57
2022/06/05 01:18:12;;;;;;;16.42;7.45;;;12.90;99.90;;;;;;5082263;28;20176;-57
2022/06/05 01:21:05;;;;;;;15.05;7.20;;;14.90;99.90;;;;;;5080699;28;20274;-56
2022/06/05 01:23:36;;;;;;;19.58;6.63;;;12.90;99.90;;;;;;5081344;28;20194;-57
2022/06/05 01:26:23;;;;;;;14.45;6.85;;;12.90;99.90;;;;;;5094324;28;20707;-56
2022/06/05 01:29:11;;;;;;;17.40;7.07;;;12.80;99.90;;;;;;5091190;28;20201;-56
2022/06/05 01:31:50;;;;;;;14.17;6.87;;;12.80;99.90;;;;;;5080788;28;20208;-56
2022/06/05 01:34:44;;;;;;;14.10;7.00;;;12.80;99.90;;;;;;5077729;28;20172;-56
2022/06/05 01:37:12;;;;;;;16.88;7.47;;;12.60;99.90;;;;;;5073667;28;20271;-56
2022/06/05 01:39:47;;;;;;;15.05;6.90;;;12.40;99.90;;;;;;5073404;28;20306;-57
2022/06/05 01:42:29;;;;;;;11.65;7.03;;;12.70;99.90;;;;;;5074017;28;20513;-58
2022/06/05 01:45:03;;;;;;;12.75;7.00;;;12.70;99.90;;;;;;5090196;28;20171;-57
2022/06/05 01:47:34;;;;;;;15.07;6.65;;;12.70;99.90;;;;;;5075535;28;20180;-57
2022/06/05 01:50:10;;;;;;;17.63;7.47;;;12.40;99.90;;;;;;5076029;28;20183;-57
2022/06/05 01:52:46;;;;;;;16.02;7.22;;;12.40;99.90;;;;;;5085500;28;20690;-57
2022/06/05 01:55:32;;;;;;;15.93;7.30;;;12.60;99.90;;;;;;5057621;28;20199;-57
2022/06/05 01:58:03;;;;;;;16.65;6.93;;;12.70;99.90;;;;;;5073300;28;20208;-57
2022/06/05 02:00:29;;;;;;;16.83;7.60;;;12.60;99.90;;;;;;5073276;28;20184;-57
2022/06/05 02:03:23;;;;;;;12.20;7.43;;;12.60;99.90;;;;;;5075392;28;20578;-57
2022/06/05 02:05:54;;;;;;;12.30;7.80;;;12.60;99.90;;;;;;5084442;28;20187;-57
2022/06/05 02:08:48;;;;;;;15.43;7.80;;;12.50;99.90;;;;;;5093036;28;20279;-56
2022/06/05 02:11:25;;;;;;;16.53;7.67;;;12.60;99.90;;;;;;5067835;28;20173;-57
2022/06/05 02:13:55;;;;;;;16.50;8.00;;;12.50;99.90;;;;;;5088300;28;20183;-57
2022/06/05 02:16:22;;;;;;;13.73;8.02;;;12.50;99.90;;;;;;5090956;28;20183;-56
2022/06/05 02:18:48;;;;;;;17.97;8.70;;;12.50;99.90;;;;;;5080513;28;20236;-56
2022/06/05 02:21:14;;;;;;;10.07;7.28;;;12.50;99.90;;;;;;5072714;28;20180;-57
2022/06/05 02:23:41;;;;;;;16.00;7.78;;;12.50;99.90;;;;;;5080020;28;20657;-56
2022/06/05 02:26:08;;;;;;;15.10;7.60;;;12.50;99.90;;;;;;5091305;28;20200;-56
2022/06/05 02:28:35;;;;;;;13.43;7.83;;;12.40;99.90;;;;;;5090941;28;20172;-56
2022/06/05 02:31:16;;;;;;;15.77;8.85;;;12.80;99.90;;;;;;5091923;28;20215;-57
2022/06/05 02:34:09;;;;;;;15.85;7.93;;;12.60;99.90;;;;;;5081011;28;20176;-57
2022/06/05 02:36:44;;;;;;;15.13;7.90;;;12.50;99.90;;;;;;5057646;28;20176;-57
2022/06/05 02:39:12;;;;;;;15.80;8.53;;;12.50;99.90;;;;;;5072576;28;20215;-57
2022/06/05 02:41:52;;;;;;;17.80;8.37;;;12.50;99.90;;;;;;5072582;28;20196;-57
2022/06/05 02:44:41;;;;;;;13.15;7.75;;;12.40;99.90;;;;;;5084144;28;20225;-57
2022/06/05 02:47:46;;;;;;;14.67;8.30;;;12.40;99.90;;;;;;5092201;28;20187;-57
2022/06/05 02:50:23;;;;;;;16.35;7.90;;;12.40;99.90;;;;;;5064107;28;20281;-58
2022/06/05 02:52:51;;;;;;;16.63;8.63;;;12.40;99.90;;;;;;5071563;28;20258;-58
2022/06/05 02:55:20;;;;;;;16.10;8.77;;;12.30;99.90;;;;;;5072012;28;20169;-58
2022/06/05 02:57:46;;;;;;;18.60;9.18;;;12.30;99.90;;;;;;5072348;28;20195;-57
2022/06/05 03:00:19;;;;;;;18.50;9.30;;;12.30;99.90;;;;;;5072124;28;20695;-57
2022/06/05 03:05:30;;;;;;;14.00;8.77;;;12.30;99.90;;;;;;5091845;28;20194;-57
2022/06/05 03:07:56;;;;;;;17.00;9.32;;;12.00;99.90;;;;;;5091936;28;20176;-57
2022/06/05 03:10:22;;;;;;;13.88;8.95;;;12.30;99.90;;;;;;5091805;28;20203;-57
2022/06/05 03:12:47;;;;;;;13.80;9.20;;;12.30;99.90;;;;;;5087623;28;20560;-56
2022/06/05 03:15:15;;;;;;;19.40;9.83;;;12.30;99.90;;;;;;5071658;28;20173;-60
2022/06/05 03:17:44;;;;;;;17.73;9.27;;;12.50;99.90;;;;;;5072696;28;20666;-56
2022/06/05 03:20:12;;;;;;;14.80;8.23;;;12.30;99.90;;;;;;5091157;28;20243;-60
2022/06/05 03:22:38;;;;;;;17.00;9.07;;;12.30;99.90;;;;;;5088948;28;20185;-58
2022/06/05 03:25:04;;;;;;;15.82;9.65;;;12.30;99.90;;;;;;5071075;28;20708;-57
2022/06/05 03:27:31;;;;;;;19.60;9.10;;;12.30;99.90;;;;;;5071397;28;20655;-57
2022/06/05 03:29:58;;;;;;;13.00;8.63;;;12.40;99.90;;;;;;5071257;28;20715;-57
2022/06/05 03:32:24;;;;;;;15.53;8.97;;;12.30;99.90;;;;;;5071393;28;20524;-57
2022/06/05 03:34:50;;;;;;;16.63;9.20;;;12.30;99.90;;;;;;5081503;28;20187;-57
2022/06/05 03:37:16;;;;;;;14.23;8.87;;;12.30;99.90;;;;;;5091008;28;20247;-57
2022/06/05 03:39:42;;;;;;;15.82;9.35;;;;;;;;;;5091186;28;20217;-61
2022/06/05 03:42:08;;;;;;;15.73;8.85;;;12.30;99.90;;;;;;5086599;28;20203;-61
2022/06/05 03:44:38;;;;;;;12.43;8.77;;;12.30;99.90;;;;;;5088098;28;20187;-56
2022/06/05 03:47:04;;;;;;;18.45;8.57;;;12.30;99.90;;;;;;5091070;28;20615;-56
2022/06/05 03:49:31;;;;;;;15.80;8.70;;;12.30;99.90;;;;;;5091571;28;20243;-56
2022/06/05 03:51:56;;;;;;;12.67;8.77;;;12.30;99.90;;;;;;5090937;28;20631;-56
2022/06/05 03:54:22;;;;;;;14.23;8.70;;;12.20;99.90;;;;;;5079231;28;20263;-56
2022/06/05 03:56:48;;;;;;;12.55;8.30;;;12.20;99.90;;;;;;5071403;28;20183;-55
2022/06/05 03:59:13;;;;;;;13.73;7.88;;;12.20;99.90;;;;;;5087201;28;20209;-55
2022/06/05 04:01:39;;;;;;;13.73;8.47;;;12.10;99.90;;;;;;5071874;28;20180;-55
2022/06/05 04:04:04;;;;;;;11.55;7.43;;;12.20;99.90;;;;;;5084529;28;20226;-55
2022/06/05 04:06:31;;;;;;;13.17;8.87;;;12.20;99.90;;;;;;5090784;28;20615;-55
2022/06/05 04:08:59;;;;;;;16.17;8.13;;;12.30;99.90;;;;;;5090789;28;20175;-55
2022/06/05 04:11:28;;;;;;;13.90;8.80;;;10.80;99.90;;;;;;5087227;28;20171;-55
2022/06/05 04:13:54;;;;;;;14.00;8.30;;;12.20;99.90;;;;;;5078257;28;20581;-55
2022/06/05 04:16:22;;;;;;;12.02;8.18;;;12.20;99.90;;;;;;5069321;28;20173;-55
2022/06/05 04:18:49;;;;;;;15.03;8.67;;;12.30;99.90;;;;;;5074331;28;20721;-55
2022/06/05 04:21:21;;;;;;;15.77;8.27;;;12.30;99.90;;;;;;5070765;28;20303;-56
2022/06/05 04:23:48;;;;;;;13.60;8.50;;;12.20;99.90;;;;;;5079911;28;20237;-55
2022/06/05 04:26:16;;;;;;;15.43;8.23;;;12.30;99.90;;;;;;5090719;28;20180;-55
2022/06/05 04:28:42;;;;;;;13.88;8.50;;;12.30;99.90;;;;;;5086230;28;20181;-56
2022/06/05 04:31:30;;;;;;;12.73;8.43;;;12.30;99.90;;;;;;5086237;28;20715;-55
2022/06/05 04:33:58;;;;;;;12.98;7.95;;;12.30;99.90;;;;;;5079427;28;20176;-55
2022/06/05 04:36:25;;;;;;;14.73;8.93;;;12.30;99.90;;;;;;5070428;28;20226;-55
2022/06/05 04:38:51;;;;;;;15.25;8.45;;;12.30;99.90;;;;;;5070397;28;20196;-55
2022/06/05 04:41:21;;;;;;;15.18;8.43;;;12.40;99.90;;;;;;5071506;28;20635;-56
2022/06/05 04:43:48;;;;;;;12.90;8.13;;;12.40;99.90;;;;;;5078853;28;20168;-55
2022/06/05 04:46:16;;;;;;;12.30;8.57;;;12.50;99.90;;;;;;5074167;28;20180;-54
2022/06/05 04:48:42;;;;;;;15.20;8.30;;;12.30;99.90;;;;;;5074671;28;20188;-54
2022/06/05 04:51:09;;;;;;;12.07;8.10;;;12.40;99.90;;;;;;5074478;28;20237;-54
2022/06/05 04:53:36;;;;;;;14.23;8.27;;;12.30;99.90;;;;;;5081870;28;20183;-55
2022/06/05 04:56:07;;;;;;;15.73;8.10;;;12.30;99.90;;;;;;5093378;28;20539;-55
2022/06/05 04:58:32;;;;;;;9.90;8.00;;;12.20;99.90;;;;;;5079353;28;20211;-54
2022/06/05 05:00:59;;;;;;;11.17;7.77;;;12.30;99.90;;;;;;5074198;28;20183;-55
2022/06/05 05:03:25;;;;;;;13.63;8.27;;;12.30;99.90;;;;;;5081534;28;20211;-55
2022/06/05 05:05:50;;;;;;;11.17;7.63;;;12.30;99.90;;;;;;5094646;28;20249;-55
2022/06/05 05:08:16;;;;;;;12.67;8.50;;;12.20;99.90;;;;;;5082708;28;20180;-56
2022/06/05 05:10:42;;;;;;;11.97;8.33;;;12.30;99.90;;;;;;5089279;28;20176;-55
2022/06/05 05:13:08;;;;;;;12.95;7.88;;;12.20;99.90;;;;;;5076246;28;20200;-54
2022/06/05 05:15:34;;;;;;;11.67;8.07;;;12.20;99.90;;;;;;5073967;28;20259;-54
2022/06/05 05:18:00;;;;;;;11.00;7.10;;;12.30;99.90;;;;;;5073930;28;20180;-54
2022/06/05 05:20:26;;;;;;;12.37;7.50;;;12.20;99.90;;;;;;5082870;28;20183;-54
2022/06/05 05:22:52;;;;;;;14.30;7.63;;;12.30;99.90;;;;;;5086466;28;20209;-55
2022/06/05 05:25:18;;;;;;;11.17;7.17;;;12.40;99.90;;;;;;5073911;28;20169;-54
2022/06/05 05:27:44;;;;;;;10.40;7.50;;;12.40;99.90;;;;;;5074801;28;20184;-54
2022/06/05 05:30:11;;;;;;;12.67;7.27;;;12.40;99.90;;;;;;5084110;28;20216;-56
2022/06/05 05:32:37;;;;;;;9.67;6.67;;;12.40;99.90;;;;;;5092163;28;20192;-56
2022/06/05 05:35:04;;;;;;;10.85;6.63;;;12.40;99.90;;;;;;5093820;28;20630;-56
2022/06/05 05:37:30;;;;;;;9.63;7.00;;;12.40;99.90;;;;;;5093554;28;20187;-55
2022/06/05 05:42:40;;;;;;;15.63;6.93;;;12.50;99.90;;;;;;5087140;28;20236;-56
2022/06/05 05:45:06;;;;;;;9.18;6.03;;;12.50;99.90;;;;;;5092815;28;20270;-55
2022/06/05 05:47:33;;;;;;;9.88;6.10;;;12.50;99.90;;;;;;5074528;28;20577;-56
2022/06/05 05:50:05;;;;;;;9.87;6.60;;;12.60;99.90;;;;;;5081623;28;20729;-56
2022/06/05 05:52:31;;;;;;;8.93;6.03;;;12.50;99.90;;;;;;5093270;28;20298;-56
2022/06/05 05:54:57;;;;;;;11.93;6.45;;;12.50;99.90;;;;;;5093251;28;20172;-56
2022/06/05 05:57:23;;;;;;;8.68;5.82;;;12.50;99.90;;;;;;5092325;28;20203;-56
2022/06/05 05:59:49;;;;;;;8.05;6.28;;;12.60;99.90;;;;;;5086178;28;20208;-56
2022/06/05 06:02:19;;;;;;;8.70;6.00;;;12.60;99.90;;;;;;5083684;28;20176;-57
2022/06/05 06:04:45;;;;;;;10.50;5.72;;;12.50;99.90;;;;;;5074409;28;20180;-56
2022/06/05 06:07:12;;;;;;;7.93;5.77;;;12.50;99.90;;;;;;5073172;28;20172;-56
2022/06/05 06:09:38;;;;;;;8.68;5.75;;;12.50;99.90;;;;;;5073159;28;20834;-56
2022/06/05 06:12:04;;;;;;;8.48;5.60;;;12.50;99.90;;;;;;5072878;28;20187;-56
2022/06/05 06:14:30;;;;;;;8.02;5.43;;;12.50;99.90;;;;;;5089314;28;20230;-56
2022/06/05 06:16:56;;;;;;;8.60;5.10;;;12.60;99.90;;;;;;5075974;28;20640;-56
2022/06/05 06:19:21;;;;;;;7.40;5.40;;;12.60;99.90;;;;;;5092813;28;20779;-56
2022/06/05 06:21:47;;;;;;;7.57;5.40;;;12.70;99.90;;;;;;5090988;28;20176;-56
2022/06/05 06:24:13;;;;;;;9.30;5.25;;;12.70;99.90;;;;;;5074892;28;20207;-56
2022/06/05 06:26:40;;;;;;;9.10;5.22;;;12.70;99.90;;;;;;5073764;28;20172;-55
2022/06/05 06:29:07;;;;;;;8.10;5.00;;;12.70;99.90;;;;;;5072712;28;20208;-56
2022/06/05 06:31:34;;;;;;;6.88;5.07;;;12.80;99.90;;;;;;5073660;28;20251;-56
2022/06/05 06:34:01;;;;;;;6.17;4.83;;;12.80;99.90;;;;;;5087817;28;20194;-56
2022/06/05 06:36:27;;;;;;;8.73;5.15;;;12.80;99.90;;;;;;5091249;28;20176;-56
2022/06/05 06:38:53;;;;;;;6.32;4.88;;;12.90;99.90;;;;;;5092120;28;20219;-56
2022/06/05 06:41:20;;;;;;;7.47;4.50;;;13.10;99.90;;;;;;5092195;28;20650;-56
2022/06/05 06:43:47;;;;;;;6.28;4.45;;;12.90;99.90;;;;;;5078839;28;20612;-57
2022/06/05 06:46:15;;;;;;;6.63;4.57;;;12.90;99.90;;;;;;5057398;28;20180;-63
2022/06/05 06:48:41;;;;;;;9.02;4.30;;;12.90;99.90;;;;;;5080478;28;20180;-63
2022/06/05 06:51:08;;;;;;;5.38;4.10;;;13.00;99.90;;;;;;5072563;28;20184;-65
2022/06/05 06:53:36;;;;;;;8.07;4.35;;;13.00;99.90;;;;;;5073899;28;20185;-63
2022/06/05 06:56:15;;;;;;;7.53;4.10;;;13.10;99.90;;;;;;5071961;28;20184;-63
2022/06/05 06:58:42;;;;;;;4.07;2.95;;;13.00;99.90;;;;;;5072042;28;20334;-63
2022/06/05 07:01:08;;;;;;;3.40;2.60;;;13.00;99.90;;;;;;5080199;28;20258;-64
2022/06/05 07:03:34;;;;;;;3.85;2.75;;;12.90;99.90;;;;;;5078579;28;20204;-58
2022/06/05 07:06:05;;;;;;;3.20;2.40;;;12.90;99.90;;;;;;5091518;28;20179;-61
2022/06/05 07:08:31;;;;;;;3.78;2.35;;;13.00;99.90;;;;;;5084438;28;20180;-67
2022/06/05 07:10:57;;;;;;;3.13;2.08;;;12.90;99.90;;;;;;5075122;28;20217;-66
2022/06/05 07:13:23;;;;;;;2.77;1.90;;;12.90;99.90;;;;;;5071192;28;20661;-67
2022/06/05 07:15:48;;;;;;;2.35;1.75;;;13.00;99.90;;;;;;5070989;28;20245;-66
2022/06/05 07:18:14;;;;;;;2.13;1.90;;;;;;;;;;5071745;28;20674;-66
2022/06/05 07:20:43;;;;;;;2.60;1.98;;;13.00;99.90;;;;;;5071947;28;20211;-65
2022/06/05 07:23:10;;;;;;;2.05;1.60;;;12.90;99.90;;;;;;5071975;28;20172;-67
2022/06/05 07:25:36;;;;;;;2.13;1.92;;;13.00;99.90;;;;;;5071995;28;20215;-67
2022/06/05 07:28:03;;;;;;;2.00;1.70;;;13.10;99.90;;;;;;5071772;28;20735;-67
2022/06/05 07:30:30;;;;;;;1.92;1.63;;;13.00;99.90;;;;;;5074127;28;20278;-62
2022/06/05 07:32:56;;;;;;;1.92;1.73;;;13.10;99.90;;;;;;5071193;28;20367;-62
2022/06/05 07:35:22;;;;;;;1.80;1.70;;;13.10;99.90;;;;;;5072920;28;20722;-58
2022/06/05 07:37:48;;;;;;;2.22;1.60;;;13.10;99.90;;;;;;5073820;28;20176;-58
2022/06/05 07:40:15;;;;;;;3.00;1.80;;;13.00;99.90;;;;;;5073869;28;20212;-58
2022/06/05 07:42:42;;;;;;;2.83;1.70;;;13.20;99.90;;;;;;5072219;28;20660;-59
2022/06/05 07:45:11;;;;;;;1.85;1.48;;;13.20;99.90;;;;;;5075251;28;20168;-59
2022/06/05 07:47:37;;;;;;;2.70;1.70;;;13.20;99.90;;;;;;5076388;28;20301;-59
2022/06/05 07:50:03;;;;;;;2.13;1.52;;;13.20;99.90;;;;;;5082402;28;20366;-58
2022/06/05 07:55:14;;;;;;;1.90;1.70;;;13.30;99.90;;;;;;5070959;28;20226;-59
2022/06/05 07:57:40;;;;;;;1.85;1.60;;;13.40;99.90;;;;;;5070818;28;20204;-59
2022/06/05 08:00:09;;;;;;;1.98;1.60;;;13.50;99.90;;;;;;5070975;28;20645;-58
2022/06/05 08:02:35;;;;;;;2.10;1.60;;;13.60;99.90;;;;;;5070999;28;20156;-58
2022/06/05 08:05:02;;;;;;;2.42;1.80;;;13.50;99.90;;;;;;5071461;28;20186;-59
2022/06/05 08:07:30;;;;;;;1.75;1.63;;;13.60;99.90;;;;;;5076327;28;20187;-59
2022/06/05 08:09:56;;;;;;;2.10;1.90;;;13.80;99.90;;;;;;5069956;28;20184;-58
2022/06/05 08:12:25;;;;;;;1.88;1.70;;;13.50;99.90;;;;;;5070756;28;20218;-62
2022/06/05 08:14:52;;;;;;;3.53;1.90;;;13.60;99.90;;;;;;5071027;28;20206;-58
2022/06/05 08:17:24;;;;;;;2.40;1.80;;;13.70;99.90;;;;;;5070814;28;20201;-58
2022/06/05 08:19:50;;;;;;;1.95;1.80;;;13.80;99.90;;;;;;5075202;28;20199;-57
2022/06/05 08:22:19;;;;;;;2.67;2.00;;;13.70;99.90;;;;;;5074520;28;20168;-57
2022/06/05 08:24:45;;;;;;;2.10;1.60;;;13.80;99.90;;;;;;5071074;28;20638;-57
2022/06/05 08:27:15;;;;;;;1.88;1.65;;;13.90;99.90;;;;;;5070891;28;20646;-58
2022/06/05 08:29:41;;;;;;;3.70;1.73;;;14.00;99.90;;;;;;5077210;28;20175;-58
2022/06/05 08:32:08;;;;;;;2.38;1.52;;;14.20;99.90;;;;;;5088797;28;20673;-57
2022/06/05 08:34:34;;;;;;;1.58;1.42;;;14.30;99.90;;;;;;5090887;28;20889;-57
2022/06/05 08:42:44;;;;;;;1.70;1.60;;;14.20;99.90;;;;;;5071252;28;20198;-59
2022/06/05 08:45:17;;;;;;;2.70;1.55;;;14.30;99.90;;;;;;5069329;28;20260;-58
2022/06/05 08:47:53;;;;;;;6.25;1.48;;;14.40;99.90;;;;;;5088384;28;20176;-58
2022/06/05 08:50:38;;;;;;;3.05;1.50;;;14.50;99.90;;;;;;5090724;28;20171;-57
2022/06/05 08:53:28;;;;;;;1.60;1.40;;;14.60;99.90;;;;;;5084610;28;20175;-58
2022/06/05 08:55:55;;;;;;;1.83;1.60;;;14.60;99.90;;;;;;5054025;28;20172;-58
2022/06/05 08:58:26;;;;;;;4.18;1.50;;;14.60;99.90;;;;;;5087416;28;20189;-57
2022/06/05 09:01:04;;;;;;;1.48;1.10;;;14.60;99.90;;;;;;5090355;28;20232;-58
2022/06/05 09:03:39;;;;;;;3.28;1.60;;;14.60;99.90;;;;;;5084233;28;20317;-57
2022/06/05 09:06:25;;;;;;;2.65;1.63;;;14.60;99.90;;;;;;5066872;28;20199;-57
2022/06/05 09:08:56;;;;;;;2.22;1.40;;;14.60;99.90;;;;;;5069360;28;20181;-56
2022/06/05 09:11:41;;;;;;;1.90;1.70;;;14.70;99.90;;;;;;5072502;28;20188;-63
2022/06/05 09:14:20;;;;;;;5.85;1.58;;;14.80;99.90;;;;;;5090403;28;20172;-63
2022/06/05 09:16:50;;;;;;;2.70;1.85;;;14.80;99.90;;;;;;5090146;28;20183;-63
2022/06/05 09:19:23;;;;;;;3.50;1.98;;;14.70;99.90;;;;;;5071597;28;20211;-63
2022/06/05 09:22:16;;;;;;;2.67;1.67;;;14.80;99.90;;;;;;5082210;28;21108;-64
2022/06/05 09:25:03;;;;;;;3.80;1.88;;;14.80;99.90;;;;;;5070310;28;20533;-63
2022/06/05 09:27:55;;;;;;;2.25;1.80;;;14.70;99.90;;;;;;5070208;28;20177;-63
2022/06/05 09:30:38;;;;;;;3.63;2.00;;;14.70;99.90;;;;;;5061677;28;20213;-63
2022/06/05 09:33:23;;;;;;;2.72;1.63;;;14.70;99.90;;;;;;5074127;28;20191;-62
2022/06/05 09:35:56;;;;;;;2.60;1.92;;;14.80;99.90;;;;;;5073910;28;20198;-63
2022/06/05 09:38:36;;;;;;;2.28;1.55;;;15.10;99.90;;;;;;5057436;28;20263;-63
2022/06/05 09:41:10;;;;;;;4.22;1.98;;;14.70;99.90;;;;;;5091768;28;20182;-63
2022/06/05 09:43:55;;;;;;;2.28;1.95;;;14.70;99.90;;;;;;5091497;28;20176;-63
2022/06/05 09:46:44;;;;;;;2.60;1.92;;;14.80;99.90;;;;;;5087901;28;20167;-63
2022/06/05 09:49:10;;;;;;;3.08;2.08;;;14.90;99.90;;;;;;5081971;28;20177;-63
2022/06/05 09:51:40;;;;;;;3.75;2.33;;;;;;;;;;5073509;28;20222;-63
2022/06/05 09:54:27;;;;;;;4.32;2.10;;;15.30;99.90;;;;;;5073338;28;20226;-62
2022/06/05 10:00:18;;;;;;;4.95;2.75;;;14.80;99.90;;;;;;5073349;28;20231;-62
2022/06/05 10:02:48;;;;;;;5.05;2.40;;;15.10;99.90;;;;;;5072953;28;20172;-62
2022/06/05 10:05:35;;;;;;;4.85;2.50;;;15.10;99.90;;;;;;5073412;28;20176;-63
2022/06/05 10:08:19;;;;;;;3.63;2.63;;;15.10;99.90;;;;;;5073006;28;20294;-62
2022/06/05 10:10:47;;;;;;;4.80;2.58;;;15.20;99.90;;;;;;5073036;28;20172;-62
2022/06/05 10:13:36;;;;;;;3.42;2.40;;;15.10;99.90;;;;;;5073245;28;20199;-62
2022/06/05 10:16:10;;;;;;;5.13;3.00;;;15.10;99.90;;;;;;5072843;28;20169;-63
2022/06/05 10:18:59;;;;;;;5.32;3.03;;;15.10;99.90;;;;;;5073251;28;20204;-62
2022/06/05 10:21:37;;;;;;;5.22;2.80;;;15.20;99.90;;;;;;5073126;28;20185;-62
2022/06/05 10:24:26;;;;;;;2.83;2.35;;;15.20;99.90;;;;;;5072313;28;20594;-62
2022/06/05 10:26:56;;;;;;;5.20;3.00;;;15.30;99.90;;;;;;5072828;28;20172;-62
2022/06/05 10:29:37;;;;;;;4.78;2.92;;;15.20;99.90;;;;;;5072920;28;20202;-63
2022/06/05 10:32:18;;;;;;;3.90;2.53;;;15.20;99.90;;;;;;5072708;28;20230;-63
2022/06/05 10:34:59;;;;;;;3.90;2.75;;;15.30;99.90;;;;;;5072718;28;20180;-63
2022/06/05 10:37:29;;;;;;;5.72;2.97;;;15.10;99.90;;;;;;5072667;28;20519;-64
2022/06/05 10:40:13;;;;;;;5.75;3.35;;;15.10;99.90;;;;;;5072881;28;20277;-63
2022/06/05 10:42:47;;;;;;;4.80;3.33;;;15.10;99.90;;;;;;5072358;28;20650;-63
2022/06/05 10:45:29;;;;;;;5.55;3.42;;;15.00;99.90;;;;;;5072525;28;20191;-63
2022/06/05 10:48:26;;;;;;;6.20;3.30;;;15.00;99.90;;;;;;5072467;28;20214;-63
2022/06/05 10:50:59;;;;;;;6.00;3.20;;;15.00;99.90;;;;;;5072324;28;20168;-62
2022/06/05 10:53:37;;;;;;;4.80;3.70;;;15.00;99.90;;;;;;5072064;28;20173;-62
2022/06/05 10:56:24;;;;;;;4.10;2.97;;;15.00;99.90;;;;;;5072251;28;20615;-63
2022/06/05 10:59:06;;;;;;;4.50;3.17;;;15.10;99.90;;;;;;5072125;28;20312;-63
2022/06/05 11:01:57;;;;;;;5.53;3.13;;;15.10;99.90;;;;;;5071997;28;20650;-63
2022/06/05 11:04:46;;;;;;;3.65;3.13;;;15.20;99.90;;;;;;5071630;28;20213;-64
2022/06/05 11:07:38;;;;;;;4.57;2.80;;;15.20;99.90;;;;;;5071761;28;20535;-63
2022/06/05 11:13:42;;;;;;;4.55;3.47;;;15.10;99.90;;;;;;5072329;28;20889;-63
2022/06/05 11:16:08;;;;;;;5.00;3.00;;;15.10;99.90;;;;;;5070731;28;20203;-63
2022/06/05 11:18:41;;;;;;;5.05;3.30;;;15.20;99.90;;;;;;5071857;28;20196;-63
2022/06/05 11:21:08;;;;;;;5.00;3.22;;;15.20;99.90;;;;;;5071520;28;20234;-63
2022/06/05 11:23:37;;;;;;;4.85;3.50;;;15.10;99.90;;;;;;5071710;28;20164;-63
2022/06/05 11:26:31;;;;;;;5.10;3.70;;;15.10;99.90;;;;;;5071559;28;20230;-64
2022/06/05 11:29:08;;;;;;;5.43;3.50;;;15.10;99.90;;;;;;5071532;28;20172;-63
2022/06/05 11:31:53;;;;;;;5.97;4.35;;;15.10;99.90;;;;;;5071230;28;20216;-63
2022/06/05 11:34:41;;;;;;;5.80;3.65;;;15.00;99.90;;;;;;5071606;28;20176;-63
2022/06/05 11:37:09;;;;;;;5.47;3.70;;;15.00;99.90;;;;;;5071428;28;20271;-63
2022/06/05 11:39:49;;;;;;;7.78;3.63;;;15.10;99.90;;;;;;5070979;28;20736;-63
2022/06/05 11:42:31;;;;;;;7.60;4.10;;;11.60;99.90;;;;;;5070986;28;20177;-63
2022/06/05 11:45:35;;;;;;;5.40;4.00;;;15.00;99.90;;;;;;5071424;28;20189;-63
2022/06/05 11:48:23;;;;;;;5.28;3.75;;;15.00;99.90;;;;;;5028851;28;20259;-63
2022/06/05 11:51:19;;;;;;;5.95;3.78;;;14.90;99.90;;;;;;5029125;28;20657;-63
2022/06/05 11:54:00;;;;;;;6.40;4.22;;;15.00;99.90;;;;;;5038749;28;20215;-62
2022/06/05 11:56:34;;;;;;;5.45;3.88;;;15.50;99.90;;;;;;5070905;28;20176;-62
2022/06/05 11:59:29;;;;;;;12.00;6.35;;;14.90;99.90;;;;;;5070723;28;20626;-62
2022/06/05 12:02:08;;;;;;;9.30;4.45;;;14.90;99.90;;;;;;5071071;28;20572;-62
2022/06/05 12:04:40;;;;;;;6.47;4.22;;;15.10;99.90;;;;;;5070812;28;20214;-63
2022/06/05 12:07:06;;;;;;;4.90;3.67;;;15.10;99.90;;;;;;5071057;28;20697;-64
2022/06/05 12:09:55;;;;;;;6.95;4.10;;;15.10;99.90;;;;;;5070982;28;20183;-62
2022/06/05 12:12:26;;;;;;;5.00;4.03;;;16.30;99.90;;;;;;5070980;28;20186;-63
2022/06/05 12:15:21;;;;;;;5.47;4.10;;;15.00;99.90;;;;;;5070740;28;20228;-63
2022/06/05 12:17:50;;;;;;;7.70;4.30;;;14.90;99.90;;;;;;5070739;28;20172;-62
2022/06/05 12:20:40;;;;;;;5.90;4.28;;;15.00;99.90;;;;;;5069147;28;20270;-61
2022/06/05 12:23:15;;;;;;;5.18;4.20;;;15.20;99.90;;;;;;5070578;28;20172;-61
2022/06/05 12:26:01;;;;;;;5.65;4.15;;;15.20;99.90;;;;;;5070478;28;20278;-63
2022/06/05 12:28:47;;;;;;;5.93;4.65;;;14.80;99.90;;;;;;5070561;28;20235;-62
2022/06/05 12:31:15;;;;;;;6.63;4.78;;;14.90;99.90;;;;;;5070153;28;20308;-61
2022/06/05 12:33:58;;;;;;;6.00;4.43;;;14.90;99.90;;;;;;5070656;28;20241;-62
2022/06/05 12:36:41;;;;;;;6.15;4.38;;;15.00;99.90;;;;;;5085504;28;20653;-61
2022/06/05 12:39:22;;;;;;;7.25;4.85;;;15.00;99.90;;;;;;5090607;28;20207;-62
2022/06/05 12:42:13;;;;;;;6.35;4.50;;;15.00;99.90;;;;;;5084415;28;20176;-62
2022/06/05 12:44:43;;;;;;;8.00;5.07;;;15.00;99.90;;;;;;5090942;28;20172;-63
2022/06/05 12:47:21;;;;;;;7.40;5.00;;;15.00;99.90;;;;;;5088942;28;20730;-62
2022/06/05 12:49:56;;;;;;;6.50;4.53;;;15.10;99.90;;;;;;5089500;28;20175;-63
2022/06/05 12:52:35;;;;;;;8.35;4.90;;;15.10;99.90;;;;;;5076037;28;20168;-63
2022/06/05 12:55:13;;;;;;;7.47;5.20;;;15.10;99.90;;;;;;5070777;28;20231;-62
2022/06/05 12:58:01;;;;;;;6.22;4.93;;;15.20;99.90;;;;;;5070381;28;20627;-62
2022/06/05 13:00:45;;;;;;;7.80;5.00;;;15.00;99.90;;;;;;5070099;28;20227;-62
2022/06/05 13:03:38;;;;;;;8.88;5.15;;;15.20;99.90;;;;;;5050446;28;20165;-63
2022/06/05 13:06:11;;;;;;;7.88;5.60;;;15.20;99.90;;;;;;5067711;28;20658;-63
2022/06/05 13:08:51;;;;;;;7.95;5.55;;;15.20;99.90;;;;;;5074342;28;20255;-63
2022/06/05 13:11:30;;;;;;;9.02;5.55;;;15.10;99.90;;;;;;5078709;28;20176;-62
2022/06/05 13:14:44;;;;;;;8.25;5.97;;;15.10;99.90;;;;;;5094718;28;20175;-62
2022/06/05 13:17:14;;;;;;;6.95;5.18;;;15.00;99.90;;;;;;5037186;28;20181;-62
2022/06/05 13:19:46;;;;;;;7.32;4.80;;;15.10;99.90;;;;;;5089585;28;20235;-63
2022/06/05 13:22:15;;;;;;;10.32;5.95;;;15.10;99.90;;;;;;5085045;28;20164;-62
2022/06/05 13:25:09;;;;;;;8.10;5.28;;;15.10;99.90;;;;;;5073706;28;20191;-63
2022/06/05 13:28:07;;;;;;;8.07;5.35;;;15.00;99.90;;;;;;5046582;28;20277;-63
2022/06/05 13:30:52;;;;;;;7.85;5.80;;;15.10;99.90;;;;;;5073596;28;20232;-63
2022/06/05 13:33:31;;;;;;;8.07;5.10;;;15.10;99.90;;;;;;5078745;28;20173;-65
2022/06/05 13:36:06;;;;;;;6.88;5.22;;;15.20;99.90;;;;;;5073717;28;20217;-62